sensor_id;sensor_type;location;lat;lon;timestamp;pressure;altitude;pressure_sealevel;temperature;humidity
56182;BME280;51963;46.052;14.544;2023-05-20T00:01:36;98511.88;;;12.79;100.00
56182;BME280;51963;46.052;14.544;2023-05-20T00:04:02;98524.22;;;13.06;100.00
56182;BME280;51963;46.052;14.544;2023-05-20T00:06:31;98506.63;;;12.92;100.00
56182;BME280;51963;46.052;14.544;2023-05-20T00:08:56;98533.16;;;12.92;100.00
56182;BME280;51963;46.052;14.544;2023-05-20T00:11:24;98524.59;;;12.90;100.00
56182;BME280;51963;46.052;14.544;2023-05-20T00:13:50;98523.78;;;12.96;100.00
56182;BME280;51963;46.052;14.544;2023-05-20T00:16:16;98516.63;;;12.97;100.00
56182;BME280;51963;46.052;14.544;2023-05-20T00:18:42;98510.72;;;13.01;100.00
56182;BME280;51963;46.052;14.544;2023-05-20T00:21:10;98514.03;;;13.17;100.00
56182;BME280;51963;46.052;14.544;2023-05-20T00:23:35;98512.41;;;13.16;100.00
56182;BME280;51963;46.052;14.544;2023-05-20T00:26:01;98526.66;;;13.01;100.00
56182;BME280;51963;46.052;14.544;2023-05-20T00:28:27;98505.38;;;12.88;100.00
56182;BME280;51963;46.052;14.544;2023-05-20T00:30:55;98495.34;;;12.76;100.00
56182;BME280;51963;46.052;14.544;2023-05-20T00:33:21;98519.66;;;12.87;100.00
56182;BME280;51963;46.052;14.544;2023-05-20T00:35:48;98519.25;;;12.83;100.00
56182;BME280;51963;46.052;14.544;2023-05-20T00:38:13;98498.00;;;12.76;100.00
56182;BME280;51963;46.052;14.544;2023-05-20T00:40:39;98506.16;;;12.75;100.00
56182;BME280;51963;46.052;14.544;2023-05-20T00:43:05;98512.28;;;12.75;100.00
56182;BME280;51963;46.052;14.544;2023-05-20T00:45:31;98499.59;;;12.71;100.00
56182;BME280;51963;46.052;14.544;2023-05-20T00:47:57;98508.03;;;12.88;100.00
56182;BME280;51963;46.052;14.544;2023-05-20T00:50:26;98517.25;;;12.92;100.00
56182;BME280;51963;46.052;14.544;2023-05-20T00:52:53;98500.44;;;12.78;100.00
56182;BME280;51963;46.052;14.544;2023-05-20T00:55:20;98505.63;;;13.00;100.00
56182;BME280;51963;46.052;14.544;2023-05-20T00:57:48;98501.53;;;13.04;100.00
56182;BME280;51963;46.052;14.544;2023-05-20T01:00:14;98511.72;;;12.94;100.00
56182;BME280;51963;46.052;14.544;2023-05-20T01:02:45;98504.59;;;12.94;100.00
56182;BME280;51963;46.052;14.544;2023-05-20T01:05:11;98482.53;;;12.87;100.00
56182;BME280;51963;46.052;14.544;2023-05-20T01:07:36;98503.56;;;13.02;100.00
56182;BME280;51963;46.052;14.544;2023-05-20T01:10:02;98489.91;;;12.98;100.00
56182;BME280;51963;46.052;14.544;2023-05-20T01:12:45;98490.31;;;12.95;100.00
56182;BME280;51963;46.052;14.544;2023-05-20T01:15:14;98500.53;;;12.98;100.00
56182;BME280;51963;46.052;14.544;2023-05-20T01:17:45;98485.41;;;12.99;100.00
56182;BME280;51963;46.052;14.544;2023-05-20T01:20:13;98500.09;;;12.88;100.00
56182;BME280;51963;46.052;14.544;2023-05-20T01:22:52;98488.44;;;12.89;100.00
56182;BME280;51963;46.052;14.544;2023-05-20T01:25:18;98472.31;;;12.84;100.00
56182;BME280;51963;46.052;14.544;2023-05-20T01:27:45;98445.75;;;12.77;100.00
56182;BME280;51963;46.052;14.544;2023-05-20T01:30:14;98480.94;;;13.13;100.00
56182;BME280;51963;46.052;14.544;2023-05-20T01:32:43;98484.63;;;13.12;100.00
56182;BME280;51963;46.052;14.544;2023-05-20T01:35:12;98484.19;;;13.08;100.00
56182;BME280;51963;46.052;14.544;2023-05-20T01:37:40;98476.81;;;12.97;100.00
56182;BME280;51963;46.052;14.544;2023-05-20T01:40:07;98481.53;;;13.01;100.00
56182;BME280;51963;46.052;14.544;2023-05-20T01:42:35;98479.47;;;12.97;100.00
56182;BME280;51963;46.052;14.544;2023-05-20T01:45:01;98477.84;;;12.96;100.00
56182;BME280;51963;46.052;14.544;2023-05-20T01:47:27;98474.16;;;12.90;100.00
56182;BME280;51963;46.052;14.544;2023-05-20T01:49:53;98454.94;;;12.81;100.00
56182;BME280;51963;46.052;14.544;2023-05-20T01:52:20;98474.16;;;12.90;100.00
56182;BME280;51963;46.052;14.544;2023-05-20T01:54:46;98462.94;;;12.95;100.00
56182;BME280;51963;46.052;14.544;2023-05-20T01:57:19;98460.09;;;12.96;100.00
56182;BME280;51963;46.052;14.544;2023-05-20T01:59:45;98467.06;;;13.11;100.00
56182;BME280;51963;46.052;14.544;2023-05-20T02:02:12;98465.22;;;13.04;100.00
56182;BME280;51963;46.052;14.544;2023-05-20T02:04:38;98467.88;;;13.11;100.00
56182;BME280;51963;46.052;14.544;2023-05-20T02:07:05;98450.28;;;12.90;100.00
56182;BME280;51963;46.052;14.544;2023-05-20T02:09:31;98448.03;;;12.94;100.00
56182;BME280;51963;46.052;14.544;2023-05-20T02:11:56;98442.53;;;12.95;100.00
56182;BME280;51963;46.052;14.544;2023-05-20T02:14:22;98446.22;;;12.94;100.00
56182;BME280;51963;46.052;14.544;2023-05-20T02:16:48;98466.84;;;13.05;100.00
56182;BME280;51963;46.052;14.544;2023-05-20T02:19:13;98447.22;;;12.93;100.00
56182;BME280;51963;46.052;14.544;2023-05-20T02:21:44;98453.78;;;12.97;100.00
56182;BME280;51963;46.052;14.544;2023-05-20T02:24:11;98455.63;;;13.03;100.00
56182;BME280;51963;46.052;14.544;2023-05-20T02:26:37;98461.75;;;13.11;100.00
56182;BME280;51963;46.052;14.544;2023-05-20T02:29:03;98451.13;;;13.04;100.00
56182;BME280;51963;46.052;14.544;2023-05-20T02:31:29;98456.44;;;13.11;100.00
56182;BME280;51963;46.052;14.544;2023-05-20T02:33:55;98458.28;;;13.03;100.00
56182;BME280;51963;46.052;14.544;2023-05-20T02:36:21;98448.47;;;13.04;100.00
56182;BME280;51963;46.052;14.544;2023-05-20T02:38:47;98418.47;;;13.03;100.00
56182;BME280;51963;46.052;14.544;2023-05-20T02:41:12;98441.75;;;13.15;100.00
56182;BME280;51963;46.052;14.544;2023-05-20T02:43:41;98435.19;;;13.04;100.00
56182;BME280;51963;46.052;14.544;2023-05-20T02:46:08;98434.16;;;13.05;100.00
56182;BME280;51963;46.052;14.544;2023-05-20T02:48:34;98443.75;;;13.06;100.00
56182;BME280;51963;46.052;14.544;2023-05-20T02:51:04;98421.28;;;12.88;100.00
56182;BME280;51963;46.052;14.544;2023-05-20T02:53:32;98443.16;;;12.97;100.00
56182;BME280;51963;46.052;14.544;2023-05-20T02:55:57;98435.56;;;12.87;100.00
56182;BME280;51963;46.052;14.544;2023-05-20T02:58:24;98439.66;;;12.90;100.00
56182;BME280;51963;46.052;14.544;2023-05-20T03:00:52;98445.78;;;12.90;100.00
56182;BME280;51963;46.052;14.544;2023-05-20T03:03:21;98436.41;;;12.88;100.00
56182;BME280;51963;46.052;14.544;2023-05-20T03:05:47;98431.72;;;12.90;100.00
56182;BME280;51963;46.052;14.544;2023-05-20T03:08:12;98416.81;;;12.89;100.00
56182;BME280;51963;46.052;14.544;2023-05-20T03:10:39;98412.94;;;12.85;100.00
56182;BME280;51963;46.052;14.544;2023-05-20T03:13:05;98419.84;;;12.79;100.00
56182;BME280;51963;46.052;14.544;2023-05-20T03:15:37;98416.38;;;12.79;100.00
56182;BME280;51963;46.052;14.544;2023-05-20T03:18:06;98417.22;;;12.86;100.00
56182;BME280;51963;46.052;14.544;2023-05-20T03:20:33;98428.84;;;12.85;100.00
56182;BME280;51963;46.052;14.544;2023-05-20T03:23:05;98403.09;;;12.65;100.00
56182;BME280;51963;46.052;14.544;2023-05-20T03:25:31;98411.47;;;12.75;100.00
56182;BME280;51963;46.052;14.544;2023-05-20T03:27:57;98415.56;;;12.85;100.00
56182;BME280;51963;46.052;14.544;2023-05-20T03:30:31;98419.03;;;12.79;100.00
56182;BME280;51963;46.052;14.544;2023-05-20T03:32:57;98419.03;;;12.79;100.00
56182;BME280;51963;46.052;14.544;2023-05-20T03:35:24;98413.91;;;12.77;100.00
56182;BME280;51963;46.052;14.544;2023-05-20T03:37:50;98403.69;;;12.74;100.00
56182;BME280;51963;46.052;14.544;2023-05-20T03:40:19;98417.78;;;12.74;100.00
56182;BME280;51963;46.052;14.544;2023-05-20T03:42:47;98421.66;;;12.65;100.00
56182;BME280;51963;46.052;14.544;2023-05-20T03:45:17;98427.38;;;12.69;100.00
56182;BME280;51963;46.052;14.544;2023-05-20T03:48:06;98431.06;;;12.81;100.00
56182;BME280;51963;46.052;14.544;2023-05-20T03:50:33;98426.16;;;12.78;100.00
56182;BME280;51963;46.052;14.544;2023-05-20T03:53:00;98432.13;;;12.87;100.00
56182;BME280;51963;46.052;14.544;2023-05-20T03:55:27;98432.50;;;12.90;100.00
56182;BME280;51963;46.052;14.544;2023-05-20T03:57:53;98430.69;;;12.91;100.00
56182;BME280;51963;46.052;14.544;2023-05-20T04:00:21;98431.72;;;12.90;100.00
56182;BME280;51963;46.052;14.544;2023-05-20T04:02:50;98432.72;;;12.96;100.00
56182;BME280;51963;46.052;14.544;2023-05-20T04:05:17;98430.28;;;12.94;100.00
56182;BME280;51963;46.052;14.544;2023-05-20T04:07:45;98431.09;;;12.95;100.00
56182;BME280;51963;46.052;14.544;2023-05-20T04:10:12;98435.19;;;12.97;100.00
56182;BME280;51963;46.052;14.544;2023-05-20T04:12:38;98435.41;;;13.02;100.00
56182;BME280;51963;46.052;14.544;2023-05-20T04:15:05;98441.31;;;13.11;100.00
56182;BME280;51963;46.052;14.544;2023-05-20T04:17:48;98434.81;;;13.14;100.00
56182;BME280;51963;46.052;14.544;2023-05-20T04:20:15;98428.69;;;13.06;100.00
56182;BME280;51963;46.052;14.544;2023-05-20T04:22:41;98445.44;;;13.14;100.00
56182;BME280;51963;46.052;14.544;2023-05-20T04:25:07;98420.47;;;12.95;100.00
56182;BME280;51963;46.052;14.544;2023-05-20T04:27:34;98440.72;;;13.16;100.00
56182;BME280;51963;46.052;14.544;2023-05-20T04:30:00;98425.41;;;13.04;100.00
56182;BME280;51963;46.052;14.544;2023-05-20T04:32:31;98422.53;;;12.99;100.00
56182;BME280;51963;46.052;14.544;2023-05-20T04:35:01;98433.59;;;13.23;100.00
56182;BME280;51963;46.052;14.544;2023-05-20T04:37:29;98420.09;;;13.18;100.00
56182;BME280;51963;46.052;14.544;2023-05-20T04:39:56;98434.63;;;13.29;100.00
56182;BME280;51963;46.052;14.544;2023-05-20T04:42:25;98432.78;;;13.29;100.00
56182;BME280;51963;46.052;14.544;2023-05-20T04:44:52;98433.16;;;13.19;100.00
56182;BME280;51963;46.052;14.544;2023-05-20T04:47:18;98436.44;;;13.28;100.00
56182;BME280;51963;46.052;14.544;2023-05-20T04:49:48;98420.94;;;13.39;100.00
56182;BME280;51963;46.052;14.544;2023-05-20T04:52:15;98442.63;;;13.49;100.00
56182;BME280;51963;46.052;14.544;2023-05-20T04:54:42;98435.66;;;13.61;100.00
56182;BME280;51963;46.052;14.544;2023-05-20T04:57:09;98416.88;;;13.63;100.00
56182;BME280;51963;46.052;14.544;2023-05-20T04:59:35;98423.16;;;13.82;100.00
56182;BME280;51963;46.052;14.544;2023-05-20T05:02:04;98427.47;;;13.83;100.00
56182;BME280;51963;46.052;14.544;2023-05-20T05:04:30;98424.16;;;14.01;100.00
56182;BME280;51963;46.052;14.544;2023-05-20T05:06:56;98412.66;;;14.14;100.00
56182;BME280;51963;46.052;14.544;2023-05-20T05:09:22;98412.66;;;14.21;100.00
56182;BME280;51963;46.052;14.544;2023-05-20T05:11:50;98418.72;;;14.35;100.00
56182;BME280;51963;46.052;14.544;2023-05-20T05:14:16;98432.19;;;14.40;100.00
56182;BME280;51963;46.052;14.544;2023-05-20T05:16:45;98418.72;;;14.35;100.00
56182;BME280;51963;46.052;14.544;2023-05-20T05:19:10;98407.28;;;14.34;100.00
56182;BME280;51963;46.052;14.544;2023-05-20T05:21:38;98422.22;;;14.35;100.00
56182;BME280;51963;46.052;14.544;2023-05-20T05:24:04;98430.50;;;14.52;100.00
56182;BME280;51963;46.052;14.544;2023-05-20T05:26:30;98415.03;;;14.36;100.00
56182;BME280;51963;46.052;14.544;2023-05-20T05:28:55;98407.22;;;14.48;100.00
56182;BME280;51963;46.052;14.544;2023-05-20T05:31:21;98423.56;;;14.51;100.00
56182;BME280;51963;46.052;14.544;2023-05-20T05:33:47;98420.28;;;14.49;100.00
56182;BME280;51963;46.052;14.544;2023-05-20T05:36:13;98401.59;;;14.63;100.00
56182;BME280;51963;46.052;14.544;2023-05-20T05:38:39;98408.94;;;15.06;100.00
56182;BME280;51963;46.052;14.544;2023-05-20T05:41:05;98418.72;;;15.13;100.00
56182;BME280;51963;46.052;14.544;2023-05-20T05:43:32;98402.41;;;15.02;100.00
56182;BME280;51963;46.052;14.544;2023-05-20T05:45:59;98418.06;;;15.43;100.00
56182;BME280;51963;46.052;14.544;2023-05-20T05:48:27;98424.16;;;15.50;100.00
56182;BME280;51963;46.052;14.544;2023-05-20T05:50:53;98407.84;;;15.39;100.00
56182;BME280;51963;46.052;14.544;2023-05-20T05:53:20;98406.72;;;15.54;100.00
56182;BME280;51963;46.052;14.544;2023-05-20T05:55:47;98423.59;;;15.66;100.00
56182;BME280;51963;46.052;14.544;2023-05-20T05:58:14;98414.78;;;15.47;100.00
56182;BME280;51963;46.052;14.544;2023-05-20T06:00:40;98424.19;;;15.68;100.00
56182;BME280;51963;46.052;14.544;2023-05-20T06:03:06;98417.72;;;15.83;100.00
56182;BME280;51963;46.052;14.544;2023-05-20T06:05:38;98424.16;;;16.01;100.00
56182;BME280;51963;46.052;14.544;2023-05-20T06:08:04;98414.38;;;16.13;100.00
56182;BME280;51963;46.052;14.544;2023-05-20T06:10:32;98413.41;;;16.07;100.00
56182;BME280;51963;46.052;14.544;2023-05-20T06:12:58;98416.66;;;16.28;100.00
56182;BME280;51963;46.052;14.544;2023-05-20T06:15:25;98411.88;;;16.49;100.00
56182;BME280;51963;46.052;14.544;2023-05-20T06:17:53;98412.13;;;16.47;100.00
56182;BME280;51963;46.052;14.544;2023-05-20T06:20:19;98431.34;;;16.68;100.00
56182;BME280;51963;46.052;14.544;2023-05-20T06:22:45;98436.56;;;16.63;100.00
56182;BME280;51963;46.052;14.544;2023-05-20T06:25:11;98435.81;;;16.55;100.00
56182;BME280;51963;46.052;14.544;2023-05-20T06:27:37;98436.41;;;16.57;100.00
56182;BME280;51963;46.052;14.544;2023-05-20T06:30:05;98440.22;;;16.80;100.00
56182;BME280;51963;46.052;14.544;2023-05-20T06:32:31;98447.41;;;16.80;100.00
56182;BME280;51963;46.052;14.544;2023-05-20T06:34:57;98440.03;;;16.63;100.00
56182;BME280;51963;46.052;14.544;2023-05-20T06:37:25;98440.44;;;16.79;100.00
56182;BME280;51963;46.052;14.544;2023-05-20T06:39:51;98433.38;;;16.84;100.00
56182;BME280;51963;46.052;14.544;2023-05-20T06:42:19;98443.28;;;16.96;100.00
56182;BME280;51963;46.052;14.544;2023-05-20T06:44:48;98435.50;;;17.25;100.00
56182;BME280;51963;46.052;14.544;2023-05-20T06:47:20;98414.19;;;17.06;100.00
56182;BME280;51963;46.052;14.544;2023-05-20T06:49:48;98425.13;;;17.17;100.00
56182;BME280;51963;46.052;14.544;2023-05-20T06:52:14;98412.38;;;16.88;100.00
56182;BME280;51963;46.052;14.544;2023-05-20T06:54:40;98421.88;;;17.14;100.00
56182;BME280;51963;46.052;14.544;2023-05-20T06:57:09;98429.31;;;17.12;100.00
56182;BME280;51963;46.052;14.544;2023-05-20T06:59:36;98420.59;;;17.17;100.00
56182;BME280;51963;46.052;14.544;2023-05-20T07:02:04;98421.75;;;17.09;100.00
56182;BME280;51963;46.052;14.544;2023-05-20T07:04:30;98418.63;;;17.12;100.00
56182;BME280;51963;46.052;14.544;2023-05-20T07:06:56;98421.44;;;17.53;100.00
56182;BME280;51963;46.052;14.544;2023-05-20T07:09:23;98415.06;;;17.66;100.00
56182;BME280;51963;46.052;14.544;2023-05-20T07:11:49;98410.63;;;17.72;100.00
56182;BME280;51963;46.052;14.544;2023-05-20T07:14:16;98409.03;;;17.59;100.00
56182;BME280;51963;46.052;14.544;2023-05-20T07:16:42;98414.47;;;17.52;100.00
56182;BME280;51963;46.052;14.544;2023-05-20T07:19:08;98404.94;;;17.56;100.00
56182;BME280;51963;46.052;14.544;2023-05-20T07:21:34;98403.56;;;17.78;100.00
56182;BME280;51963;46.052;14.544;2023-05-20T07:24:03;98401.09;;;18.00;100.00
56182;BME280;51963;46.052;14.544;2023-05-20T07:26:30;98399.00;;;18.14;100.00
56182;BME280;51963;46.052;14.544;2023-05-20T07:28:58;98402.03;;;18.06;100.00
56182;BME280;51963;46.052;14.544;2023-05-20T07:31:24;98396.81;;;17.87;100.00
56182;BME280;51963;46.052;14.544;2023-05-20T07:33:50;98396.44;;;18.07;100.00
56182;BME280;51963;46.052;14.544;2023-05-20T07:36:18;98399.56;;;18.16;100.00
56182;BME280;51963;46.052;14.544;2023-05-20T07:38:48;98389.34;;;18.13;100.00
56182;BME280;51963;46.052;14.544;2023-05-20T07:41:13;98404.72;;;18.06;100.00
56182;BME280;51963;46.052;14.544;2023-05-20T07:43:39;98397.59;;;17.99;100.00
56182;BME280;51963;46.052;14.544;2023-05-20T07:46:06;98375.72;;;18.14;100.00
56182;BME280;51963;46.052;14.544;2023-05-20T07:52:33;98397.66;;;19.15;100.00
56182;BME280;51963;46.052;14.544;2023-05-20T07:54:59;98395.28;;;19.36;100.00
56182;BME280;51963;46.052;14.544;2023-05-20T08:01:28;98386.03;;;19.44;100.00
56182;BME280;51963;46.052;14.544;2023-05-20T08:03:54;98366.72;;;19.42;100.00
56182;BME280;51963;46.052;14.544;2023-05-20T08:06:22;98376.56;;;19.75;97.16
56182;BME280;51963;46.052;14.544;2023-05-20T08:08:54;98370.16;;;20.21;96.36
56182;BME280;51963;46.052;14.544;2023-05-20T08:11:26;98371.41;;;20.35;93.63
56182;BME280;51963;46.052;14.544;2023-05-20T08:13:52;98377.59;;;20.36;93.80
56182;BME280;51963;46.052;14.544;2023-05-20T08:16:20;98373.03;;;19.92;98.20
56182;BME280;51963;46.052;14.544;2023-05-20T08:18:46;98373.78;;;19.70;97.58
56182;BME280;51963;46.052;14.544;2023-05-20T08:21:12;98374.41;;;19.55;95.15
56182;BME280;51963;46.052;14.544;2023-05-20T08:23:38;98365.41;;;19.44;94.02
56182;BME280;51963;46.052;14.544;2023-05-20T08:26:05;98375.25;;;20.17;92.38
56182;BME280;51963;46.052;14.544;2023-05-20T08:28:32;98367.84;;;20.79;88.98
56182;BME280;51963;46.052;14.544;2023-05-20T08:31:00;98376.38;;;21.74;83.47
56182;BME280;51963;46.052;14.544;2023-05-20T08:33:27;98348.53;;;21.58;85.44
56182;BME280;51963;46.052;14.544;2023-05-20T08:35:54;98370.09;;;22.11;84.83
56182;BME280;51963;46.052;14.544;2023-05-20T08:38:20;98371.41;;;22.14;78.69
56182;BME280;51963;46.052;14.544;2023-05-20T08:40:51;98367.00;;;22.51;77.12
56182;BME280;51963;46.052;14.544;2023-05-20T08:43:17;98368.28;;;21.69;81.52
56182;BME280;51963;46.052;14.544;2023-05-20T08:45:46;98362.34;;;20.96;83.47
56182;BME280;51963;46.052;14.544;2023-05-20T08:48:15;98361.66;;;21.44;82.54
56182;BME280;51963;46.052;14.544;2023-05-20T08:50:44;98351.94;;;21.38;84.08
56182;BME280;51963;46.052;14.544;2023-05-20T08:53:10;98358.75;;;21.18;84.53
56182;BME280;51963;46.052;14.544;2023-05-20T08:55:41;98362.81;;;20.88;86.77
56182;BME280;51963;46.052;14.544;2023-05-20T08:58:10;98359.22;;;20.77;89.23
56182;BME280;51963;46.052;14.544;2023-05-20T09:00:40;98319.94;;;20.71;86.55
56182;BME280;51963;46.052;14.544;2023-05-20T09:03:06;98349.47;;;21.36;86.04
56182;BME280;51963;46.052;14.544;2023-05-20T09:05:35;98347.31;;;21.01;89.37
56182;BME280;51963;46.052;14.544;2023-05-20T09:08:08;98329.75;;;21.20;86.80
56182;BME280;51963;46.052;14.544;2023-05-20T09:10:35;98343.31;;;22.58;79.94
56182;BME280;51963;46.052;14.544;2023-05-20T09:13:02;98341.59;;;22.26;79.44
56182;BME280;51963;46.052;14.544;2023-05-20T09:15:35;98349.66;;;22.26;77.45
56182;BME280;51963;46.052;14.544;2023-05-20T09:18:02;98344.34;;;22.47;77.45
56182;BME280;51963;46.052;14.544;2023-05-20T09:20:29;98350.63;;;21.94;80.02
56182;BME280;51963;46.052;14.544;2023-05-20T09:23:03;98355.69;;;22.64;77.36
56182;BME280;51963;46.052;14.544;2023-05-20T09:25:29;98365.78;;;22.10;77.57
56182;BME280;51963;46.052;14.544;2023-05-20T09:28:08;98365.03;;;21.67;79.71
56182;BME280;51963;46.052;14.544;2023-05-20T09:30:40;98358.06;;;21.71;80.61
56182;BME280;51963;46.052;14.544;2023-05-20T09:33:05;98365.97;;;21.98;79.89
56182;BME280;51963;46.052;14.544;2023-05-20T09:35:35;98348.38;;;22.49;77.36
56182;BME280;51963;46.052;14.544;2023-05-20T09:38:04;98341.72;;;22.83;76.64
56182;BME280;51963;46.052;14.544;2023-05-20T09:40:30;98357.34;;;23.27;77.64
56182;BME280;51963;46.052;14.544;2023-05-20T09:43:03;98340.56;;;23.56;70.65
56182;BME280;51963;46.052;14.544;2023-05-20T09:45:30;98354.81;;;23.78;71.00
56182;BME280;51963;46.052;14.544;2023-05-20T09:47:56;98349.47;;;23.57;69.48
56182;BME280;51963;46.052;14.544;2023-05-20T09:50:23;98351.63;;;23.50;70.13
56182;BME280;51963;46.052;14.544;2023-05-20T09:52:50;98347.41;;;24.14;68.83
56182;BME280;51963;46.052;14.544;2023-05-20T09:55:18;98353.59;;;24.20;68.80
56182;BME280;51963;46.052;14.544;2023-05-20T09:57:44;98349.63;;;23.92;69.52
56182;BME280;51963;46.052;14.544;2023-05-20T10:00:11;98347.06;;;23.55;69.99
56182;BME280;51963;46.052;14.544;2023-05-20T10:02:49;98347.81;;;23.71;71.79
56182;BME280;51963;46.052;14.544;2023-05-20T10:16:43;98359.19;;;23.53;66.57
56182;BME280;51963;46.052;14.544;2023-05-20T10:19:27;98366.50;;;22.95;67.32
56182;BME280;51963;46.052;14.544;2023-05-20T10:22:03;98345.47;;;22.71;68.25
56182;BME280;51963;46.052;14.544;2023-05-20T10:24:36;98349.13;;;22.24;68.19
56182;BME280;51963;46.052;14.544;2023-05-20T10:27:06;98337.22;;;22.04;71.04
56182;BME280;51963;46.052;14.544;2023-05-20T10:29:42;98336.91;;;22.01;70.82
56182;BME280;51963;46.052;14.544;2023-05-20T10:32:08;98330.63;;;22.84;67.82
56182;BME280;51963;46.052;14.544;2023-05-20T10:34:47;98309.81;;;23.52;66.21
56182;BME280;51963;46.052;14.544;2023-05-20T10:37:30;98320.66;;;23.21;65.21
56182;BME280;51963;46.052;14.544;2023-05-20T10:40:07;98322.25;;;23.43;64.28
56182;BME280;51963;46.052;14.544;2023-05-20T10:42:34;98321.16;;;23.54;64.05
56182;BME280;51963;46.052;14.544;2023-05-20T10:45:02;98300.06;;;23.67;62.89
56182;BME280;51963;46.052;14.544;2023-05-20T10:47:29;98322.81;;;24.61;61.20
56182;BME280;51963;46.052;14.544;2023-05-20T10:49:55;98324.25;;;23.93;63.04
56182;BME280;51963;46.052;14.544;2023-05-20T10:52:23;98321.50;;;24.08;60.77
56182;BME280;51963;46.052;14.544;2023-05-20T10:57:20;98317.81;;;23.83;61.63
56182;BME280;51963;46.052;14.544;2023-05-20T10:59:46;98292.09;;;23.05;61.96
56182;BME280;51963;46.052;14.544;2023-05-20T11:02:14;98311.06;;;23.86;60.42
56182;BME280;51963;46.052;14.544;2023-05-20T11:04:44;98311.44;;;23.58;60.43
56182;BME280;51963;46.052;14.544;2023-05-20T11:07:11;98306.63;;;23.40;61.20
56182;BME280;51963;46.052;14.544;2023-05-20T11:09:37;98292.63;;;23.12;61.04
56182;BME280;51963;46.052;14.544;2023-05-20T11:12:03;98286.44;;;22.80;61.52
56182;BME280;51963;46.052;14.544;2023-05-20T11:14:29;98303.91;;;23.45;60.63
56182;BME280;51963;46.052;14.544;2023-05-20T11:16:57;98309.47;;;23.69;59.18
56182;BME280;51963;46.052;14.544;2023-05-20T11:19:22;98299.94;;;24.03;58.94
56182;BME280;51963;46.052;14.544;2023-05-20T11:21:48;98299.44;;;23.91;57.09
56182;BME280;51963;46.052;14.544;2023-05-20T11:24:24;98303.38;;;23.48;60.38
56182;BME280;51963;46.052;14.544;2023-05-20T11:26:52;98293.22;;;23.90;58.34
56182;BME280;51963;46.052;14.544;2023-05-20T11:29:18;98296.13;;;24.09;57.87
56182;BME280;51963;46.052;14.544;2023-05-20T11:31:49;98296.22;;;24.39;57.18
56182;BME280;51963;46.052;14.544;2023-05-20T11:34:21;98290.19;;;24.87;56.12
56182;BME280;51963;46.052;14.544;2023-05-20T11:36:48;98289.16;;;25.12;55.37
56182;BME280;51963;46.052;14.544;2023-05-20T11:39:17;98287.56;;;24.42;56.50
56182;BME280;51963;46.052;14.544;2023-05-20T11:41:42;98275.69;;;24.78;59.23
56182;BME280;51963;46.052;14.544;2023-05-20T11:44:09;98278.00;;;25.48;55.93
56182;BME280;51963;46.052;14.544;2023-05-20T11:46:46;98266.84;;;24.67;57.04
56182;BME280;51963;46.052;14.544;2023-05-20T11:49:12;98269.72;;;24.01;58.47
56182;BME280;51963;46.052;14.544;2023-05-20T11:51:39;98275.72;;;23.82;59.82
56182;BME280;51963;46.052;14.544;2023-05-20T11:54:06;98272.34;;;24.11;60.12
56182;BME280;51963;46.052;14.544;2023-05-20T11:56:36;98270.28;;;24.72;57.14
56182;BME280;51963;46.052;14.544;2023-05-20T11:59:06;98280.28;;;24.77;56.37
56182;BME280;51963;46.052;14.544;2023-05-20T12:01:35;98273.00;;;23.82;59.36
56182;BME280;51963;46.052;14.544;2023-05-20T12:04:10;98267.22;;;24.15;57.79
56182;BME280;51963;46.052;14.544;2023-05-20T12:06:40;98270.78;;;24.45;57.57
56182;BME280;51963;46.052;14.544;2023-05-20T12:09:07;98255.28;;;24.56;57.07
56182;BME280;51963;46.052;14.544;2023-05-20T12:11:37;98265.56;;;25.18;57.49
56182;BME280;51963;46.052;14.544;2023-05-20T12:14:06;98265.63;;;25.13;57.12
56182;BME280;51963;46.052;14.544;2023-05-20T12:16:33;98255.00;;;25.46;54.46
56182;BME280;51963;46.052;14.544;2023-05-20T12:19:00;98255.94;;;25.99;53.74
56182;BME280;51963;46.052;14.544;2023-05-20T12:21:27;98247.56;;;24.44;57.28
56182;BME280;51963;46.052;14.544;2023-05-20T12:23:53;98254.06;;;23.93;59.75
56182;BME280;51963;46.052;14.544;2023-05-20T12:26:28;98237.41;;;23.75;58.93
56182;BME280;51963;46.052;14.544;2023-05-20T12:28:54;98259.94;;;24.10;58.77
56182;BME280;51963;46.052;14.544;2023-05-20T12:31:21;98246.56;;;25.23;57.50
56182;BME280;51963;46.052;14.544;2023-05-20T12:33:46;98252.34;;;24.87;57.26
56182;BME280;51963;46.052;14.544;2023-05-20T12:36:13;98243.84;;;25.72;54.52
56182;BME280;51963;46.052;14.544;2023-05-20T12:38:39;98220.22;;;25.34;55.93
56182;BME280;51963;46.052;14.544;2023-05-20T12:41:05;98238.22;;;24.95;57.74
56182;BME280;51963;46.052;14.544;2023-05-20T12:43:31;98234.78;;;25.14;55.77
56182;BME280;51963;46.052;14.544;2023-05-20T12:45:56;98227.19;;;25.16;55.87
56182;BME280;51963;46.052;14.544;2023-05-20T12:48:22;98214.41;;;24.33;58.73
56182;BME280;51963;46.052;14.544;2023-05-20T12:50:48;98215.94;;;23.54;58.72
56182;BME280;51963;46.052;14.544;2023-05-20T12:53:14;98231.66;;;23.21;61.31
56182;BME280;51963;46.052;14.544;2023-05-20T12:55:39;98221.00;;;22.64;63.96
56182;BME280;51963;46.052;14.544;2023-05-20T12:58:05;98217.44;;;22.27;65.91
56182;BME280;51963;46.052;14.544;2023-05-20T13:00:34;98228.25;;;22.64;64.88
56182;BME280;51963;46.052;14.544;2023-05-20T13:02:59;98219.59;;;22.25;65.70
56182;BME280;51963;46.052;14.544;2023-05-20T13:05:25;98212.81;;;21.87;68.23
56182;BME280;51963;46.052;14.544;2023-05-20T13:07:51;98212.78;;;21.71;68.57